Time;durP1;ratioP1;P1;durP2;ratioP2;P2;SDS_P1;SDS_P2;PMS_P1;PMS_P2;Temp;Humidity;BMP_temperature;BMP_pressure;BME280_temperature;BME280_humidity;BME280_pressure;Samples;Min_cycle;Max_cycle;Signal;HPM_P1;HPM_P2
2021/12/29 00:02:04;;;;;;;2.22;0.80;;;16.90;55.50;;;;;;4991434;28;20444;-67
2021/12/29 00:04:31;;;;;;;1.70;0.50;;;16.80;55.70;;;;;;4990378;28;20087;-69
2021/12/29 00:06:59;;;;;;;0.55;0.30;;;16.70;55.90;;;;;;4991291;28;20495;-68
2021/12/29 00:09:25;;;;;;;1.73;0.40;;;16.70;56.30;;;;;;4988926;28;20130;-68
2021/12/29 00:11:52;;;;;;;2.25;0.75;;;16.70;56.60;;;;;;4988859;28;20075;-68
2021/12/29 00:14:19;;;;;;;6.25;0.73;;;16.60;56.90;;;;;;4989027;28;20098;-68
2021/12/29 00:16:45;;;;;;;3.38;1.15;;;16.50;57.40;;;;;;4989846;28;20082;-66
2021/12/29 00:19:12;;;;;;;6.30;1.00;;;16.40;58.00;;;;;;4993478;28;20079;-68
2021/12/29 00:21:38;;;;;;;3.88;0.90;;;16.30;58.80;;;;;;4991169;28;20537;-67
2021/12/29 00:24:05;;;;;;;2.67;0.82;;;16.20;59.60;;;;;;4991657;28;20489;-66
2021/12/29 00:26:33;;;;;;;3.30;0.90;;;16.10;60.50;;;;;;4989350;28;20089;-67
2021/12/29 00:29:00;;;;;;;3.00;0.85;;;16.00;61.10;;;;;;4989252;28;20071;-68
2021/12/29 00:31:29;;;;;;;7.38;1.00;;;15.90;61.40;;;;;;4990876;28;20079;-69
2021/12/29 00:33:56;;;;;;;5.07;1.52;;;15.90;61.60;;;;;;4990383;28;20067;-68
2021/12/29 00:36:23;;;;;;;2.83;1.25;;;15.90;60.90;;;;;;4989371;28;20581;-67
2021/12/29 00:38:49;;;;;;;2.10;1.20;;;15.80;61.00;;;;;;4990204;28;20182;-69
2021/12/29 00:41:16;;;;;;;10.35;1.15;;;15.80;60.40;;;;;;4990048;28;20113;-67
2021/12/29 00:43:44;;;;;;;8.93;1.70;;;15.70;60.30;;;;;;4989256;28;20075;-67
2021/12/29 00:46:13;;;;;;;7.57;1.30;;;15.70;60.40;;;;;;4989074;28;20098;-67
2021/12/29 00:48:42;;;;;;;8.13;1.23;;;15.70;60.60;;;;;;4990166;28;20075;-68
2021/12/29 00:51:10;;;;;;;5.75;1.02;;;15.60;60.90;;;;;;4990765;28;20087;-67
2021/12/29 00:53:37;;;;;;;4.35;1.42;;;15.50;61.30;;;;;;4989609;28;20430;-67
2021/12/29 00:56:04;;;;;;;1.95;0.80;;;15.40;61.30;;;;;;4991133;28;20090;-67
2021/12/29 00:58:31;;;;;;;8.32;0.88;;;15.40;61.60;;;;;;4989886;28;20138;-66
2021/12/29 01:00:57;;;;;;;;;;;15.30;62.40;;;;;;4990348;28;20091;-67
2021/12/29 01:03:24;;;;;;;8.60;0.90;;;15.20;63.30;;;;;;4989019;28;20021;-71
2021/12/29 01:05:52;;;;;;;1.83;0.90;;;15.00;64.00;;;;;;4989833;28;20087;-68
2021/12/29 01:08:18;;;;;;;7.18;1.10;;;14.90;64.50;;;;;;4988948;28;20177;-69
2021/12/29 01:10:47;;;;;;;9.52;1.80;;;14.90;64.60;;;;;;4989550;28;20083;-67
2021/12/29 01:13:19;;;;;;;8.20;1.52;;;14.80;65.30;;;;;;4989606;28;20184;-69
2021/12/29 01:15:58;;;;;;;2.28;1.23;;;14.80;65.60;;;;;;4990519;28;20112;-69
2021/12/29 01:18:28;;;;;;;5.18;1.20;;;14.60;65.90;;;;;;4990395;28;20087;-71
2021/12/29 01:20:55;;;;;;;6.53;1.58;;;14.60;66.40;;;;;;4988401;28;20530;-70
2021/12/29 01:23:23;;;;;;;2.15;1.10;;;14.50;66.80;;;;;;4988991;28;20612;-70
2021/12/29 01:25:49;;;;;;;2.60;0.95;;;14.40;67.50;;;;;;4990328;28;20075;-68
2021/12/29 01:28:16;;;;;;;2.08;0.90;;;14.40;68.00;;;;;;4989396;28;20079;-70
2021/12/29 01:30:43;;;;;;;;;;;14.30;68.40;;;;;;4989091;28;20540;-69
2021/12/29 01:33:10;;;;;;;5.28;1.67;;;14.30;68.80;;;;;;4988710;28;19958;-68
2021/12/29 01:35:38;;;;;;;4.93;1.00;;;14.20;69.00;;;;;;4989085;28;20133;-69
2021/12/29 01:38:06;;;;;;;2.40;1.20;;;14.20;69.30;;;;;;4988349;28;20752;-67
2021/12/29 01:40:35;;;;;;;8.85;1.83;;;14.10;69.60;;;;;;4990320;28;20099;-70
2021/12/29 01:43:04;;;;;;;5.18;0.80;;;14.10;70.10;;;;;;4988988;28;20233;-69
2021/12/29 01:45:31;;;;;;;6.95;1.00;;;14.10;70.30;;;;;;4989426;28;20448;-70
2021/12/29 01:48:00;;;;;;;2.17;0.70;;;14.10;70.40;;;;;;4971740;28;20083;-71
2021/12/29 01:50:29;;;;;;;3.90;1.30;;;14.10;70.50;;;;;;4988558;28;20095;-71
2021/12/29 01:53:01;;;;;;;7.75;1.05;;;14.00;70.60;;;;;;4989143;28;20081;-70
2021/12/29 01:55:30;;;;;;;7.75;1.27;;;14.00;70.60;;;;;;4988190;28;20081;-69
2021/12/29 01:57:57;;;;;;;24.02;7.68;;;14.00;70.70;;;;;;4990204;28;20122;-67
2021/12/29 02:00:27;;;;;;;13.50;1.95;;;13.90;70.80;;;;;;4972584;28;20154;-69
2021/12/29 02:02:54;;;;;;;17.08;4.80;;;13.90;70.80;;;;;;4987823;28;20503;-70
2021/12/29 02:05:20;;;;;;;14.63;4.20;;;13.90;70.30;;;;;;4990355;28;20480;-70
2021/12/29 02:07:47;;;;;;;9.07;1.70;;;13.90;70.50;;;;;;4988465;28;20082;-68
2021/12/29 02:10:16;;;;;;;6.82;1.60;;;13.90;70.80;;;;;;4989775;28;20097;-68
2021/12/29 02:12:43;;;;;;;5.53;1.90;;;13.80;70.30;;;;;;4989642;28;20842;-68
2021/12/29 02:15:11;;;;;;;11.50;2.58;;;13.80;70.20;;;;;;4988465;28;20152;-69
2021/12/29 02:17:38;;;;;;;6.80;2.25;;;13.80;69.90;;;;;;4989376;28;20087;-71
2021/12/29 02:20:11;;;;;;;5.82;2.15;;;13.80;70.00;;;;;;4988712;28;20079;-69
2021/12/29 02:22:46;;;;;;;9.60;1.70;;;13.80;69.90;;;;;;4988974;28;20125;-74
2021/12/29 02:27:45;;;;;;;6.85;1.30;;;13.80;69.10;;;;;;4988898;28;20099;-70
2021/12/29 02:30:12;;;;;;;7.88;1.60;;;13.80;69.00;;;;;;4987745;28;20078;-70
2021/12/29 02:32:39;;;;;;;4.75;1.50;;;13.80;68.20;;;;;;4988208;28;20075;-69
2021/12/29 02:35:07;;;;;;;5.57;1.80;;;13.80;68.30;;;;;;4988230;28;20129;-70
2021/12/29 02:37:33;;;;;;;5.80;1.60;;;13.80;68.30;;;;;;4988820;28;20099;-69
2021/12/29 02:40:00;;;;;;;7.60;1.70;;;13.80;68.30;;;;;;4989087;28;20079;-69
2021/12/29 02:42:29;;;;;;;4.75;2.25;;;13.80;68.30;;;;;;4989047;28;20149;-69
2021/12/29 02:44:57;;;;;;;6.55;2.05;;;13.80;68.90;;;;;;4988787;28;20166;-70
2021/12/29 02:47:23;;;;;;;6.35;2.17;;;13.70;69.40;;;;;;4988356;28;20071;-69
2021/12/29 02:49:50;;;;;;;4.22;2.28;;;13.70;70.50;;;;;;4989321;28;20087;-69
2021/12/29 02:52:16;;;;;;;;;;;13.60;70.20;;;;;;4991023;28;20186;-69
2021/12/29 02:54:42;;;;;;;4.32;1.80;;;13.60;70.80;;;;;;4988723;28;19958;-70
2021/12/29 02:57:09;;;;;;;3.92;1.70;;;13.50;71.30;;;;;;4989412;28;20113;-70
2021/12/29 02:59:35;;;;;;;;;;;13.40;72.10;;;;;;4972428;28;20106;-68
2021/12/29 03:02:01;;;;;;;3.78;1.52;;;13.40;72.80;;;;;;4988143;28;19985;-70
2021/12/29 03:04:27;;;;;;;;;;;13.40;73.10;;;;;;4989532;28;20071;-68
2021/12/29 03:06:53;;;;;;;5.70;2.10;;;13.40;73.30;;;;;;4991071;28;19958;-71
2021/12/29 03:09:20;;;;;;;6.13;1.92;;;13.40;73.40;;;;;;4991352;28;20071;-69
2021/12/29 03:11:47;;;;;;;6.25;2.00;;;13.40;73.70;;;;;;4992283;28;20533;-66
2021/12/29 03:14:14;;;;;;;6.85;1.80;;;13.40;73.90;;;;;;4991155;28;20168;-67
2021/12/29 03:16:41;;;;;;;7.00;2.35;;;13.40;73.90;;;;;;4981782;28;20141;-65
2021/12/29 03:19:08;;;;;;;7.88;2.60;;;13.40;73.60;;;;;;4995838;28;20177;-66
2021/12/29 03:21:36;;;;;;;10.73;2.80;;;13.40;74.10;;;;;;4993085;28;20071;-66
2021/12/29 03:24:04;;;;;;;8.15;2.78;;;13.30;74.60;;;;;;4990803;28;20071;-66
2021/12/29 03:26:30;;;;;;;7.18;2.47;;;13.10;75.20;;;;;;4990365;28;20085;-67
2021/12/29 03:28:57;;;;;;;;;;;13.00;76.30;;;;;;4993145;28;20535;-65
2021/12/29 03:31:25;;;;;;;5.75;2.30;;;12.90;77.10;;;;;;4992674;28;19998;-65
2021/12/29 03:33:52;;;;;;;5.47;2.30;;;12.90;77.50;;;;;;4992654;28;20222;-66
2021/12/29 03:36:18;;;;;;;;;;;12.90;78.10;;;;;;4993656;28;20075;-65
2021/12/29 03:38:46;;;;;;;8.95;1.40;;;12.90;77.50;;;;;;4993686;28;20024;-65
2021/12/29 03:41:15;;;;;;;7.88;1.45;;;13.00;76.00;;;;;;4991360;28;20075;-63
2021/12/29 03:43:43;;;;;;;4.97;2.22;;;13.10;75.60;;;;;;4991976;28;20075;-62
2021/12/29 03:46:11;;;;;;;6.03;2.08;;;13.20;75.60;;;;;;4991076;28;20071;-64
2021/12/29 03:48:39;;;;;;;5.15;1.90;;;13.20;75.80;;;;;;4992104;28;20079;-64
2021/12/29 03:51:06;;;;;;;4.40;2.38;;;13.30;75.80;;;;;;4991995;28;20127;-68
2021/12/29 03:53:34;;;;;;;3.88;2.22;;;13.30;76.30;;;;;;4992140;28;20564;-66
2021/12/29 03:56:02;;;;;;;11.75;2.55;;;13.30;75.90;;;;;;4991920;28;20090;-65
2021/12/29 03:58:29;;;;;;;3.30;1.88;;;13.40;75.70;;;;;;4992441;28;20576;-64
2021/12/29 04:01:07;;;;;;;5.78;2.00;;;13.50;76.20;;;;;;4991955;28;20075;-67
2021/12/29 04:03:33;;;;;;;4.57;1.27;;;13.60;75.30;;;;;;4993643;28;20107;-66
2021/12/29 04:06:00;;;;;;;6.97;1.80;;;13.60;75.00;;;;;;4993524;28;20075;-67
2021/12/29 04:08:26;;;;;;;4.82;1.48;;;13.80;74.90;;;;;;4992265;28;20169;-65
2021/12/29 04:10:52;;;;;;;;;;;14.00;74.40;;;;;;4992532;28;20645;-66
2021/12/29 04:13:19;;;;;;;6.38;1.67;;;14.00;73.90;;;;;;4992013;28;19974;-65
2021/12/29 04:15:45;;;;;;;8.73;2.30;;;13.90;73.60;;;;;;4991405;28;20106;-64
2021/12/29 04:18:15;;;;;;;;;;;14.00;74.20;;;;;;4992161;28;20103;-66
2021/12/29 04:20:57;;;;;;;4.38;1.40;;;14.00;74.10;;;;;;4990875;28;19959;-68
2021/12/29 04:23:35;;;;;;;3.78;1.40;;;14.20;73.40;;;;;;4991365;28;20649;-66
2021/12/29 04:26:04;;;;;;;2.88;1.50;;;14.20;73.30;;;;;;5005588;28;20094;-66
2021/12/29 04:28:31;;;;;;;5.38;1.48;;;14.20;73.80;;;;;;4979150;28;20071;-66
2021/12/29 04:31:05;;;;;;;6.13;1.30;;;14.10;73.50;;;;;;4975305;28;20083;-66
2021/12/29 04:33:32;;;;;;;5.25;1.30;;;14.20;73.70;;;;;;4975280;28;20173;-66
2021/12/29 04:35:59;;;;;;;7.05;1.30;;;14.30;73.10;;;;;;5006831;28;20086;-67
2021/12/29 04:38:26;;;;;;;4.40;1.10;;;14.20;73.00;;;;;;4990682;28;20556;-66
2021/12/29 04:40:54;;;;;;;3.17;1.30;;;14.00;73.10;;;;;;4990901;28;20225;-65
2021/12/29 04:43:21;;;;;;;2.47;1.65;;;13.70;74.10;;;;;;4992036;28;20575;-66
2021/12/29 04:45:48;;;;;;;5.30;1.58;;;13.70;74.80;;;;;;4990536;28;20075;-67
2021/12/29 04:48:15;;;;;;;5.45;2.25;;;13.70;74.40;;;;;;4990203;28;20101;-66
2021/12/29 04:50:50;;;;;;;4.55;1.60;;;13.80;74.60;;;;;;4990326;28;20087;-65
2021/12/29 04:53:20;;;;;;;2.90;1.48;;;13.70;74.40;;;;;;4991764;28;20544;-64
2021/12/29 04:55:49;;;;;;;3.85;1.80;;;13.50;75.10;;;;;;4989926;28;20075;-64
2021/12/29 04:58:18;;;;;;;4.43;1.58;;;13.40;75.40;;;;;;4991465;28;20118;-65
2021/12/29 05:00:46;;;;;;;4.28;1.70;;;13.40;75.80;;;;;;4988552;28;20072;-64
2021/12/29 05:03:13;;;;;;;4.95;1.83;;;13.50;75.50;;;;;;4990629;28;20110;-66
2021/12/29 05:05:52;;;;;;;5.70;1.50;;;13.60;75.00;;;;;;4990450;28;20074;-65
2021/12/29 05:08:25;;;;;;;3.00;1.50;;;13.50;75.20;;;;;;4989893;28;20154;-66
2021/12/29 05:11:13;;;;;;;4.40;1.80;;;13.30;75.60;;;;;;4988685;28;20074;-66
2021/12/29 05:13:43;;;;;;;5.80;1.80;;;13.30;75.90;;;;;;4987944;28;20090;-66
2021/12/29 05:16:10;;;;;;;2.38;1.05;;;13.30;76.00;;;;;;5002027;28;20078;-66
2021/12/29 05:18:38;;;;;;;4.72;1.75;;;13.40;75.80;;;;;;4989741;28;20118;-67
2021/12/29 05:21:06;;;;;;;5.60;2.70;;;13.40;76.00;;;;;;4991404;28;20101;-65
2021/12/29 05:23:33;;;;;;;11.35;3.83;;;13.30;75.80;;;;;;4990230;28;20488;-67
2021/12/29 05:25:59;;;;;;;4.35;2.03;;;13.30;75.90;;;;;;4989485;28;20082;-68
2021/12/29 05:28:25;;;;;;;;;;;13.30;76.00;;;;;;4990099;28;20075;-66
2021/12/29 05:30:53;;;;;;;9.60;3.88;;;13.30;76.30;;;;;;4990700;28;19962;-66
2021/12/29 05:33:20;;;;;;;6.53;2.20;;;13.40;76.20;;;;;;4989275;28;20440;-66
2021/12/29 05:35:46;;;;;;;;;;;13.40;75.70;;;;;;4989519;28;20089;-66
2021/12/29 05:38:12;;;;;;;4.53;1.95;;;13.50;75.80;;;;;;4972757;28;19978;-67
2021/12/29 05:40:38;;;;;;;;;;;13.70;75.50;;;;;;4989176;28;20071;-67
2021/12/29 05:43:05;;;;;;;4.25;1.92;;;13.70;75.10;;;;;;4989049;28;20339;-68
2021/12/29 05:45:32;;;;;;;4.55;2.40;;;13.80;75.90;;;;;;4989374;28;20079;-68
2021/12/29 05:47:59;;;;;;;4.57;2.25;;;13.60;75.00;;;;;;4988194;28;20174;-67
2021/12/29 05:50:28;;;;;;;6.97;2.45;;;13.70;75.60;;;;;;4988652;28;20108;-69
2021/12/29 05:52:56;;;;;;;4.22;1.30;;;13.50;75.50;;;;;;4989059;28;20083;-66
2021/12/29 05:55:22;;;;;;;5.28;1.23;;;13.50;76.00;;;;;;4989173;28;20078;-66
2021/12/29 05:57:49;;;;;;;7.53;1.65;;;13.50;75.10;;;;;;4990353;28;20105;-69
2021/12/29 06:00:17;;;;;;;;;;;13.50;75.10;;;;;;4989282;28;20175;-68
2021/12/29 06:02:44;;;;;;;4.30;1.85;;;13.40;76.20;;;;;;4988410;28;20475;-66
2021/12/29 06:05:11;;;;;;;5.50;2.35;;;13.40;75.90;;;;;;4990005;28;20078;-67
2021/12/29 06:07:38;;;;;;;6.47;2.03;;;13.30;76.10;;;;;;4989037;28;20517;-68
2021/12/29 06:10:06;;;;;;;4.47;2.33;;;13.20;76.90;;;;;;4988074;28;20182;-66
2021/12/29 06:12:33;;;;;;;4.30;1.63;;;13.20;77.00;;;;;;4988755;28;20093;-71
2021/12/29 06:14:59;;;;;;;3.30;1.33;;;13.30;76.80;;;;;;4988102;28;20121;-67
2021/12/29 06:17:25;;;;;;;;;;;13.20;76.60;;;;;;4989650;28;20114;-67
2021/12/29 06:19:51;;;;;;;4.13;1.40;;;13.20;77.40;;;;;;4989246;28;19958;-68
2021/12/29 06:22:18;;;;;;;5.60;1.10;;;13.00;77.40;;;;;;4988865;28;20087;-67
2021/12/29 06:24:51;;;;;;;2.67;1.42;;;12.90;78.10;;;;;;4987809;28;20600;-67
2021/12/29 06:27:22;;;;;;;2.80;1.08;;;12.90;78.40;;;;;;4988104;28;20118;-68
2021/12/29 06:29:49;;;;;;;4.53;1.23;;;12.90;78.50;;;;;;4989138;28;20082;-68
2021/12/29 06:32:16;;;;;;;1.60;0.98;;;12.80;78.80;;;;;;4987846;28;20472;-67
2021/12/29 06:34:43;;;;;;;2.47;0.63;;;12.80;79.40;;;;;;4989534;28;20075;-67
2021/12/29 06:37:12;;;;;;;0.82;0.63;;;12.70;79.90;;;;;;4988333;28;20382;-68
2021/12/29 06:39:43;;;;;;;0.68;0.43;;;12.60;80.40;;;;;;4987267;28;20155;-67
2021/12/29 06:42:10;;;;;;;1.75;0.60;;;12.60;80.90;;;;;;4987149;28;20101;-69
2021/12/29 06:44:36;;;;;;;2.20;0.85;;;12.60;81.00;;;;;;4988182;28;20174;-68
2021/12/29 06:47:03;;;;;;;3.92;1.15;;;12.50;81.00;;;;;;4991393;28;20070;-66
2021/12/29 06:49:30;;;;;;;2.55;0.90;;;12.50;81.40;;;;;;4987159;28;20124;-64
2021/12/29 06:51:56;;;;;;;;;;;12.40;81.30;;;;;;4990071;28;20082;-65
2021/12/29 06:54:22;;;;;;;2.95;1.33;;;12.40;81.30;;;;;;4988332;28;19965;-64
2021/12/29 06:56:49;;;;;;;3.15;1.30;;;12.40;81.30;;;;;;4987743;28;20390;-67
2021/12/29 06:59:15;;;;;;;2.47;1.13;;;12.50;81.20;;;;;;4987328;28;20442;-66
2021/12/29 07:01:41;;;;;;;;;;;12.50;81.10;;;;;;4987145;28;20091;-67
2021/12/29 07:04:08;;;;;;;2.30;0.50;;;12.50;81.30;;;;;;4991366;28;19990;-65
2021/12/29 07:06:34;;;;;;;;;;;12.50;81.10;;;;;;4993764;28;20074;-67
2021/12/29 07:09:00;;;;;;;2.08;0.70;;;12.50;81.20;;;;;;4989023;28;19966;-65
2021/12/29 07:11:26;;;;;;;;;;;12.60;80.90;;;;;;4990985;28;20082;-66
2021/12/29 07:13:52;;;;;;;5.07;0.95;;;12.60;81.00;;;;;;4989054;28;20005;-66
2021/12/29 07:16:19;;;;;;;4.38;0.55;;;12.60;81.00;;;;;;4987907;28;20162;-67
2021/12/29 07:18:48;;;;;;;;;;;12.60;81.20;;;;;;4989792;28;20086;-65
2021/12/29 07:21:15;;;;;;;3.13;0.50;;;12.50;81.30;;;;;;4988682;28;19974;-66
2021/12/29 07:23:42;;;;;;;0.45;0.40;;;12.50;81.40;;;;;;4988752;28;20165;-65
2021/12/29 07:26:08;;;;;;;;;;;12.50;81.50;;;;;;4993291;28;20075;-65
2021/12/29 07:28:34;;;;;;;0.95;0.30;;;12.50;81.50;;;;;;4989147;28;19958;-67
2021/12/29 07:31:00;;;;;;;2.13;0.60;;;12.50;81.40;;;;;;4987400;28;20071;-65
2021/12/29 07:33:26;;;;;;;;;;;12.50;81.30;;;;;;4989649;28;20099;-65
2021/12/29 07:35:53;;;;;;;2.53;0.50;;;12.60;80.80;;;;;;4987285;28;19965;-64
2021/12/29 07:38:19;;;;;;;;;;;12.60;80.50;;;;;;4992054;28;20101;-66
2021/12/29 07:40:45;;;;;;;0.60;0.60;;;12.50;80.30;;;;;;4990958;28;20048;-65
2021/12/29 07:43:12;;;;;;;;;;;12.60;79.80;;;;;;4990511;28;20071;-65
2021/12/29 07:45:42;;;;;;;0.30;0.30;;;12.60;79.70;;;;;;4989003;28;20417;-65
2021/12/29 07:48:09;;;;;;;1.30;0.55;;;12.60;79.50;;;;;;4990017;28;20075;-65
2021/12/29 07:50:37;;;;;;;1.65;0.60;;;12.60;79.40;;;;;;4987866;28;20082;-65
2021/12/29 07:53:05;;;;;;;1.67;0.60;;;12.60;79.30;;;;;;4990541;28;20082;-65
2021/12/29 07:55:32;;;;;;;0.30;0.30;;;12.60;79.40;;;;;;4997176;28;20089;-64
2021/12/29 07:57:58;;;;;;;0.70;0.43;;;12.60;79.70;;;;;;4993548;28;20448;-65
2021/12/29 08:00:25;;;;;;;2.63;0.50;;;12.60;79.80;;;;;;4993026;28;20114;-65
2021/12/29 08:02:51;;;;;;;;;;;12.50;80.00;;;;;;4993184;28;20151;-66
2021/12/29 08:05:18;;;;;;;1.23;0.53;;;12.40;80.40;;;;;;4997315;28;19965;-66
2021/12/29 08:07:46;;;;;;;1.52;0.60;;;12.40;80.70;;;;;;4991212;28;20101;-65
2021/12/29 08:10:13;;;;;;;6.03;0.80;;;12.30;80.90;;;;;;4992316;28;20075;-65
2021/12/29 08:12:39;;;;;;;2.75;0.70;;;12.30;81.00;;;;;;4992100;28;20070;-65
2021/12/29 08:15:07;;;;;;;4.30;0.60;;;12.20;81.30;;;;;;4989255;28;20784;-65
2021/12/29 08:17:33;;;;;;;1.10;0.73;;;12.30;81.20;;;;;;4979311;28;20098;-66
2021/12/29 08:20:02;;;;;;;2.35;0.80;;;12.30;81.00;;;;;;4992597;28;20066;-66
2021/12/29 08:22:29;;;;;;;3.25;1.05;;;12.30;81.90;;;;;;4977997;28;20103;-65
2021/12/29 08:24:55;;;;;;;;;;;12.30;80.90;;;;;;4974902;28;20076;-64
2021/12/29 08:27:22;;;;;;;1.38;0.77;;;12.30;80.70;;;;;;4992272;28;19981;-65
2021/12/29 08:29:48;;;;;;;6.78;2.25;;;12.30;80.50;;;;;;4993637;28;20191;-65
2021/12/29 08:32:14;;;;;;;;;;;12.30;80.60;;;;;;4989795;28;20095;-66
2021/12/29 08:34:41;;;;;;;3.22;1.05;;;12.30;80.20;;;;;;4991699;28;20323;-67
2021/12/29 08:37:07;;;;;;;2.53;0.70;;;12.30;80.00;;;;;;4994624;28;20110;-66
2021/12/29 08:39:33;;;;;;;;;;;12.40;79.70;;;;;;4992385;28;20110;-65
2021/12/29 08:42:00;;;;;;;2.88;1.13;;;12.30;79.60;;;;;;4993763;28;19958;-67
2021/12/29 08:44:26;;;;;;;2.60;0.90;;;12.30;79.40;;;;;;4988820;28;20078;-66
2021/12/29 08:46:53;;;;;;;;;;;12.30;79.50;;;;;;4990754;28;20121;-66
2021/12/29 08:49:19;;;;;;;2.55;0.95;;;12.30;79.50;;;;;;4990872;28;20316;-68
2021/12/29 08:51:45;;;;;;;6.25;1.08;;;12.40;79.60;;;;;;4994269;28;20516;-66
2021/12/29 08:54:13;;;;;;;3.08;0.90;;;12.30;80.00;;;;;;4992319;28;20097;-65
2021/12/29 08:56:39;;;;;;;3.05;1.00;;;12.20;80.10;;;;;;4974366;28;20105;-67
2021/12/29 08:59:05;;;;;;;;;;;12.30;80.30;;;;;;4992416;28;20110;-66
2021/12/29 09:01:32;;;;;;;2.55;0.60;;;12.30;80.20;;;;;;4990494;28;20478;-66
2021/12/29 09:03:58;;;;;;;;;;;12.30;80.50;;;;;;4975710;28;20592;-66
2021/12/29 09:06:24;;;;;;;3.78;2.20;;;12.30;80.70;;;;;;4972722;28;19963;-67
2021/12/29 09:08:51;;;;;;;1.88;0.80;;;12.20;81.10;;;;;;4977303;28;20087;-67
2021/12/29 09:11:17;;;;;;;;;;;12.30;81.20;;;;;;4992249;28;20081;-66
2021/12/29 09:13:43;;;;;;;0.88;0.30;;;12.20;81.30;;;;;;4992694;28;19958;-67
2021/12/29 09:16:10;;;;;;;;;;;12.20;81.10;;;;;;4972990;28;20082;-67
2021/12/29 09:18:38;;;;;;;0.88;0.50;;;12.20;81.50;;;;;;4991249;28;20371;-66
2021/12/29 09:21:10;;;;;;;3.13;0.60;;;12.10;81.90;;;;;;4972345;28;20105;-66
2021/12/29 09:23:37;;;;;;;1.73;0.70;;;12.10;82.70;;;;;;4990811;28;20146;-66
2021/12/29 09:26:05;;;;;;;2.58;0.50;;;11.90;82.60;;;;;;4988743;28;20071;-68
2021/12/29 09:28:31;;;;;;;3.70;0.70;;;11.90;83.40;;;;;;4992257;28;20074;-66
2021/12/29 09:30:58;;;;;;;1.80;0.50;;;11.90;82.30;;;;;;4992023;28;20248;-66
2021/12/29 09:33:25;;;;;;;2.75;0.75;;;11.90;82.70;;;;;;4994041;28;20078;-66
2021/12/29 09:35:53;;;;;;;;;;;11.90;82.30;;;;;;4993509;28;20087;-66
2021/12/29 09:38:20;;;;;;;3.00;0.82;;;11.90;82.00;;;;;;4991901;28;19982;-66
2021/12/29 09:40:47;;;;;;;3.38;0.70;;;11.90;81.00;;;;;;4990998;28;20074;-66
2021/12/29 09:43:15;;;;;;;5.30;1.00;;;11.90;81.00;;;;;;4990478;28;20157;-66
2021/12/29 09:45:42;;;;;;;3.25;0.60;;;11.90;81.20;;;;;;4988575;28;20078;-66
2021/12/29 09:48:09;;;;;;;3.78;1.00;;;11.90;81.10;;;;;;4990518;28;20086;-65
2021/12/29 09:50:35;;;;;;;;;;;11.90;81.20;;;;;;4957954;28;20089;-67
2021/12/29 09:53:02;;;;;;;2.47;0.70;;;11.90;81.40;;;;;;4993005;28;19970;-66
2021/12/29 09:55:29;;;;;;;2.10;0.63;;;12.00;81.50;;;;;;4990640;28;20122;-67
2021/12/29 09:57:57;;;;;;;;;;;11.90;81.60;;;;;;4989307;28;20148;-66
2021/12/29 10:00:31;;;;;;;2.00;0.63;;;11.90;81.50;;;;;;4990319;28;20543;-66
2021/12/29 10:03:00;;;;;;;1.83;0.70;;;11.90;82.10;;;;;;4987521;28;20129;-66
2021/12/29 10:05:28;;;;;;;2.35;0.80;;;11.90;82.40;;;;;;4974985;28;20098;-66
2021/12/29 10:08:08;;;;;;;4.50;0.90;;;11.80;82.70;;;;;;4992880;28;20089;-66
2021/12/29 10:10:37;;;;;;;4.55;1.10;;;11.80;83.20;;;;;;4992526;28;20082;-66
2021/12/29 10:13:06;;;;;;;8.02;1.83;;;11.80;82.50;;;;;;5001297;28;20094;-66
2021/12/29 10:15:50;;;;;;;6.63;2.45;;;11.70;82.40;;;;;;4972187;28;20463;-66
2021/12/29 10:18:22;;;;;;;7.22;3.05;;;11.60;82.90;;;;;;4977803;28;20562;-66
2021/12/29 10:20:58;;;;;;;6.00;2.95;;;11.60;82.90;;;;;;4973528;28;20098;-67
2021/12/29 10:23:28;;;;;;;7.80;3.20;;;11.60;83.00;;;;;;4988980;28;20440;-66
2021/12/29 10:25:57;;;;;;;5.75;2.53;;;11.60;83.30;;;;;;4989587;28;20107;-67
2021/12/29 10:28:30;;;;;;;6.72;2.67;;;11.60;82.90;;;;;;4987071;28;20095;-65
2021/12/29 10:31:11;;;;;;;4.05;2.03;;;11.60;83.20;;;;;;4987970;28;20114;-66
2021/12/29 10:33:42;;;;;;;3.67;1.90;;;11.60;83.20;;;;;;4993416;28;20070;-66
2021/12/29 10:36:16;;;;;;;4.85;1.40;;;11.50;83.20;;;;;;4987224;28;20090;-66
2021/12/29 10:38:45;;;;;;;5.05;1.60;;;11.60;82.80;;;;;;4987753;28;20090;-65
2021/12/29 10:41:11;;;;;;;4.45;0.95;;;11.60;82.60;;;;;;4987604;28;20078;-66
2021/12/29 10:43:39;;;;;;;;;;;11.70;81.80;;;;;;4988325;28;20101;-65
2021/12/29 10:46:21;;;;;;;1.48;0.70;;;11.70;81.30;;;;;;4988502;28;19958;-65
2021/12/29 10:48:49;;;;;;;3.40;0.90;;;11.80;80.70;;;;;;4971620;28;20074;-65
2021/12/29 10:51:17;;;;;;;1.88;0.50;;;11.80;80.60;;;;;;4989005;28;20079;-66
2021/12/29 10:53:44;;;;;;;2.25;0.70;;;11.80;79.50;;;;;;4988724;28;20086;-66
2021/12/29 10:56:22;;;;;;;2.30;0.65;;;11.80;79.30;;;;;;4989917;28;20079;-66
2021/12/29 10:58:50;;;;;;;2.65;1.08;;;11.80;79.30;;;;;;4993447;28;20105;-66
2021/12/29 11:01:18;;;;;;;2.67;1.10;;;11.80;79.30;;;;;;4988504;28;20567;-67
2021/12/29 11:03:58;;;;;;;3.67;1.30;;;11.80;79.50;;;;;;4989546;28;20106;-66
2021/12/29 11:06:26;;;;;;;4.43;1.90;;;11.80;79.30;;;;;;4988805;28;20070;-65
2021/12/29 11:08:58;;;;;;;5.97;2.28;;;11.80;78.90;;;;;;4971198;28;21330;-66
2021/12/29 11:11:37;;;;;;;6.20;2.78;;;11.70;79.40;;;;;;4973499;28;21442;-66
2021/12/29 11:14:14;;;;;;;6.10;2.30;;;11.70;80.60;;;;;;4969829;28;20071;-65
2021/12/29 11:16:42;;;;;;;9.00;3.35;;;11.60;81.30;;;;;;4987121;28;20075;-65
2021/12/29 11:19:08;;;;;;;8.88;3.45;;;11.40;82.00;;;;;;4973233;28;20142;-65
2021/12/29 11:21:38;;;;;;;8.10;3.63;;;11.40;82.70;;;;;;4992994;28;20086;-65
2021/12/29 11:24:23;;;;;;;7.75;3.80;;;11.30;83.00;;;;;;4990737;28;20073;-65
2021/12/29 11:26:51;;;;;;;5.28;2.63;;;11.30;82.70;;;;;;4988466;28;20082;-65
2021/12/29 11:29:22;;;;;;;7.60;2.95;;;11.20;82.50;;;;;;4996523;28;20071;-66
2021/12/29 11:32:00;;;;;;;5.78;2.03;;;11.20;82.30;;;;;;4975548;28;20078;-65
2021/12/29 11:34:28;;;;;;;4.00;1.55;;;11.20;82.40;;;;;;4993286;28;20436;-66
2021/12/29 11:37:11;;;;;;;3.13;1.40;;;11.20;82.20;;;;;;4994936;28;20075;-66
2021/12/29 11:39:42;;;;;;;6.68;1.25;;;11.30;82.20;;;;;;4992058;28;20122;-66
2021/12/29 11:42:09;;;;;;;3.55;1.00;;;11.30;82.70;;;;;;4992441;28;20110;-67
2021/12/29 11:44:37;;;;;;;1.90;1.17;;;11.10;83.10;;;;;;4990640;28;20078;-66
2021/12/29 11:47:06;;;;;;;4.82;1.70;;;11.10;83.70;;;;;;4992716;28;20114;-66
2021/12/29 11:49:33;;;;;;;4.47;1.70;;;11.00;83.70;;;;;;4993353;28;20076;-67
2021/12/29 11:52:28;;;;;;;3.53;1.17;;;11.00;84.20;;;;;;4993919;28;20533;-66
2021/12/29 11:55:24;;;;;;;6.78;1.08;;;11.00;84.70;;;;;;4991531;28;20072;-66
2021/12/29 11:57:51;;;;;;;2.58;0.90;;;11.00;84.80;;;;;;4992277;28;20448;-66
2021/12/29 12:00:19;;;;;;;;;;;11.00;84.30;;;;;;4993141;28;20078;-66
2021/12/29 12:02:52;;;;;;;7.32;3.30;;;11.00;84.10;;;;;;4994072;28;19985;-66
2021/12/29 12:05:24;;;;;;;8.73;3.20;;;10.80;85.00;;;;;;4991682;28;20067;-65
2021/12/29 12:07:51;;;;;;;6.18;2.75;;;10.80;85.20;;;;;;4996131;28;20103;-66
2021/12/29 12:10:35;;;;;;;9.13;3.78;;;10.80;86.00;;;;;;4993901;28;20079;-66
2021/12/29 12:13:05;;;;;;;7.70;3.85;;;10.80;86.40;;;;;;4992068;28;20541;-66
2021/12/29 12:15:37;;;;;;;12.68;5.32;;;10.70;86.80;;;;;;4991267;28;20146;-66
2021/12/29 12:18:08;;;;;;;13.30;7.13;;;10.60;87.20;;;;;;4994079;28;20094;-66
2021/12/29 12:20:47;;;;;;;25.88;12.57;;;10.40;87.60;;;;;;4989589;28;20468;-66
2021/12/29 12:23:27;;;;;;;34.08;14.70;;;10.20;88.50;;;;;;4990203;28;20153;-66
2021/12/29 12:26:06;;;;;;;29.80;13.60;;;10.00;89.70;;;;;;4979011;28;20870;-67
2021/12/29 12:28:44;;;;;;;33.67;15.45;;;9.90;90.50;;;;;;4977344;28;20071;-66
2021/12/29 12:31:28;;;;;;;39.20;14.35;;;9.80;91.10;;;;;;4974961;28;20396;-67
2021/12/29 12:34:15;;;;;;;31.50;14.07;;;9.70;91.40;;;;;;4989821;28;20078;-68
2021/12/29 12:36:42;;;;;;;32.17;14.25;;;9.70;91.60;;;;;;4992497;28;20078;-65
2021/12/29 12:39:13;;;;;;;28.25;13.15;;;9.70;92.20;;;;;;4993532;28;20089;-68
2021/12/29 12:41:43;;;;;;;30.95;13.85;;;9.70;92.20;;;;;;5005691;28;20083;-66
2021/12/29 12:44:10;;;;;;;38.63;15.68;;;9.70;92.40;;;;;;4990139;28;20110;-65
2021/12/29 12:46:49;;;;;;;39.38;18.05;;;9.70;92.00;;;;;;4989444;28;20149;-66
2021/12/29 12:49:16;;;;;;;42.95;20.27;;;9.60;92.40;;;;;;4991842;28;20083;-65
2021/12/29 12:51:57;;;;;;;47.25;21.88;;;9.60;92.90;;;;;;4995008;28;20071;-66
2021/12/29 12:54:27;;;;;;;41.40;23.58;;;9.50;92.80;;;;;;4993761;28;20086;-66
2021/12/29 12:56:56;;;;;;;57.00;24.27;;;9.50;92.70;;;;;;4987606;28;20085;-65
2021/12/29 12:59:35;;;;;;;39.08;21.55;;;9.50;93.10;;;;;;4992118;28;20129;-65
2021/12/29 13:02:19;;;;;;;38.70;22.13;;;9.40;93.00;;;;;;4992796;28;20130;-65
2021/12/29 13:05:05;;;;;;;40.72;20.85;;;9.40;93.40;;;;;;4991251;28;20122;-66
2021/12/29 13:07:33;;;;;;;35.40;19.55;;;9.30;93.30;;;;;;4992172;28;20171;-66